AKT181 CYXS-CYCG
Flight info
| Callsign | AKT181 |
|---|---|
| Flight time | 0h 40m |
| Altitude | 37000 |
| Route | TIKES |
| Aircraft | B737/M-SDE2E3FGHIRWXY/LB1 |
Departure
| Time | 2026-04-23 03:27 |
|---|---|
| Airport | Prince George (International) Airport (CYXS) |
Arrival
| Time | 2026-04-23 04:08 |
|---|---|
| Airport | Castlegar/West Kootenay Regional Airport (CYCG) |
| Time | Latitude | Longitude | Altitude | Speed | Heading |
|---|---|---|---|---|---|
| 2026-04-23 03:06 | 53.88495 | -122.67442 | 2232 ft | 0 kts | 158° |
| 2026-04-23 03:20 | 53.88493 | -122.67441 | 2205 ft | 1 kts | 167° |
| 2026-04-23 03:20 | 53.88491 | -122.67456 | 2205 ft | 2 kts | 277° |
| 2026-04-23 03:21 | 53.88495 | -122.67464 | 2205 ft | 0 kts | 303° |
| 2026-04-23 03:21 | 53.88503 | -122.67485 | 2205 ft | 5 kts | 304° |
| 2026-04-23 03:21 | 53.88536 | -122.67503 | 2235 ft | 5 kts | 6° |
| 2026-04-23 03:22 | 53.88567 | -122.67475 | 2232 ft | 5 kts | 39° |
| 2026-04-23 03:22 | 53.88592 | -122.67431 | 2232 ft | 7 kts | 64° |
| 2026-04-23 03:22 | 53.88610 | -122.67269 | 2222 ft | 19 kts | 81° |
| 2026-04-23 03:22 | 53.88631 | -122.67044 | 2223 ft | 19 kts | 78° |
| 2026-04-23 03:23 | 53.88641 | -122.66950 | 2219 ft | 0 kts | 79° |
| 2026-04-23 03:24 | 53.88644 | -122.66924 | 2221 ft | 1 kts | 79° |
| 2026-04-23 03:26 | 53.88646 | -122.66909 | 2221 ft | 4 kts | 79° |
| 2026-04-23 03:26 | 53.88653 | -122.66835 | 2223 ft | 9 kts | 81° |
| 2026-04-23 03:27 | 53.88686 | -122.66752 | 2222 ft | 11 kts | 7° |
| 2026-04-23 03:27 | 53.88991 | -122.66808 | 2226 ft | 87 kts | 349° |
| 2026-04-23 03:27 | 53.89844 | -122.67049 | 2316 ft | 153 kts | 354° |
| 2026-04-23 03:27 | 53.90915 | -122.67306 | 3187 ft | 159 kts | 355° |
| 2026-04-23 03:28 | 53.92027 | -122.67571 | 4453 ft | 159 kts | 351° |
| 2026-04-23 03:28 | 53.93213 | -122.67923 | 5040 ft | 186 kts | 350° |
| 2026-04-23 03:28 | 53.94584 | -122.68358 | 5282 ft | 213 kts | 349° |
| 2026-04-23 03:28 | 53.96065 | -122.68860 | 5812 ft | 225 kts | 349° |
| 2026-04-23 03:29 | 53.97691 | -122.69430 | 6220 ft | 248 kts | 348° |
| 2026-04-23 03:29 | 53.99416 | -122.69763 | 7153 ft | 251 kts | 7° |
| 2026-04-23 03:29 | 54.01049 | -122.68660 | 8103 ft | 258 kts | 31° |
| 2026-04-23 03:29 | 54.02351 | -122.66493 | 9023 ft | 270 kts | 52° |
| 2026-04-23 03:30 | 54.03109 | -122.63557 | 9891 ft | 282 kts | 75° |
| 2026-04-23 03:30 | 54.03106 | -122.60144 | 10602 ft | 301 kts | 99° |
| 2026-04-23 03:30 | 54.02220 | -122.56711 | 10895 ft | 331 kts | 121° |
| 2026-04-23 03:30 | 54.00683 | -122.53700 | 11557 ft | 343 kts | 137° |
| 2026-04-23 03:31 | 53.98811 | -122.51254 | 12508 ft | 344 kts | 144° |
| 2026-04-23 03:31 | 53.96802 | -122.48938 | 13359 ft | 349 kts | 145° |
| 2026-04-23 03:31 | 53.94771 | -122.46657 | 14243 ft | 353 kts | 145° |
| 2026-04-23 03:31 | 53.92683 | -122.44286 | 14824 ft | 366 kts | 144° |
| 2026-04-23 03:32 | 53.90575 | -122.41845 | 15469 ft | 375 kts | 143° |
| 2026-04-23 03:32 | 53.88398 | -122.39280 | 16177 ft | 383 kts | 143° |
| 2026-04-23 03:32 | 53.86191 | -122.36647 | 16842 ft | 392 kts | 142° |
| 2026-04-23 03:32 | 53.83942 | -122.33942 | 17525 ft | 401 kts | 142° |
| 2026-04-23 03:33 | 53.81473 | -122.30957 | 18255 ft | 411 kts | 141° |
| 2026-04-23 03:33 | 53.71813 | -122.19248 | 20808 ft | 438 kts | 140° |
| 2026-04-23 03:33 | 53.61548 | -122.06863 | 23073 ft | 469 kts | 140° |
| 2026-04-23 03:33 | 53.50774 | -121.93973 | 25367 ft | 484 kts | 140° |
| 2026-04-23 03:34 | 53.39723 | -121.80858 | 27746 ft | 491 kts | 141° |
| 2026-04-23 03:34 | 53.28375 | -121.67451 | 29774 ft | 502 kts | 142° |
| 2026-04-23 03:34 | 53.16796 | -121.53850 | 31412 ft | 511 kts | 143° |
| 2026-04-23 03:34 | 53.05283 | -121.40422 | 33064 ft | 508 kts | 144° |
| 2026-04-23 03:35 | 52.93793 | -121.27120 | 34866 ft | 496 kts | 146° |
| 2026-04-23 03:35 | 52.82444 | -121.14101 | 36174 ft | 490 kts | 146° |
| 2026-04-23 03:35 | 52.71235 | -121.01260 | 37143 ft | 492 kts | 146° |
| 2026-04-23 03:35 | 52.59753 | -120.88221 | 37211 ft | 508 kts | 147° |
| 2026-04-23 03:36 | 52.48217 | -120.75206 | 37025 ft | 507 kts | 147° |
| 2026-04-23 03:36 | 52.36652 | -120.62235 | 36983 ft | 496 kts | 147° |
| 2026-04-23 03:36 | 52.25405 | -120.49695 | 36927 ft | 479 kts | 148° |
| 2026-04-23 03:36 | 52.14453 | -120.37563 | 37002 ft | 472 kts | 148° |
| 2026-04-23 03:38 | 51.60458 | -119.78843 | 36938 ft | 493 kts | 148° |
| 2026-04-23 03:38 | 51.49096 | -119.66706 | 36919 ft | 487 kts | 148° |
| 2026-04-23 03:38 | 51.38036 | -119.55173 | 36901 ft | 474 kts | 148° |
| 2026-04-23 03:38 | 51.27303 | -119.43624 | 36898 ft | 466 kts | 148° |
| 2026-04-23 03:39 | 51.05697 | -119.21014 | 36911 ft | 462 kts | 149° |
| 2026-04-23 03:39 | 50.95548 | -119.10454 | 36796 ft | 440 kts | 149° |
| 2026-04-23 03:39 | 50.93004 | -119.07817 | 36568 ft | 433 kts | 149° |
| 2026-04-23 03:40 | 50.90510 | -119.05241 | 36183 ft | 430 kts | 149° |
| 2026-04-23 03:40 | 50.87998 | -119.02651 | 35791 ft | 427 kts | 149° |
| 2026-04-23 03:40 | 50.85526 | -119.00106 | 35301 ft | 428 kts | 150° |
| 2026-04-23 03:40 | 50.83020 | -118.97552 | 34852 ft | 426 kts | 150° |
| 2026-04-23 03:41 | 50.80534 | -118.95046 | 34634 ft | 423 kts | 150° |
| 2026-04-23 03:41 | 50.78014 | -118.92508 | 34438 ft | 437 kts | 150° |
| 2026-04-23 03:41 | 50.75397 | -118.89864 | 34226 ft | 452 kts | 150° |
| 2026-04-23 03:41 | 50.72763 | -118.87192 | 32896 ft | 464 kts | 148° |
| 2026-04-23 03:42 | 50.70031 | -118.84401 | 33754 ft | 469 kts | 150° |
| 2026-04-23 03:42 | 50.67280 | -118.81588 | 32990 ft | 471 kts | 150° |
| 2026-04-23 03:42 | 50.64540 | -118.78787 | 32842 ft | 471 kts | 150° |
| 2026-04-23 03:42 | 50.61820 | -118.76004 | 32661 ft | 459 kts | 150° |
| 2026-04-23 03:43 | 50.59178 | -118.73301 | 32591 ft | 444 kts | 150° |
| 2026-04-23 03:43 | 50.56622 | -118.70683 | 32568 ft | 429 kts | 151° |
| 2026-04-23 03:43 | 50.54188 | -118.68206 | 32576 ft | 415 kts | 151° |
| 2026-04-23 03:43 | 50.51792 | -118.65776 | 32573 ft | 402 kts | 151° |
| 2026-04-23 03:44 | 50.49479 | -118.63432 | 32571 ft | 389 kts | 152° |
| 2026-04-23 03:44 | 50.47238 | -118.61164 | 32564 ft | 376 kts | 152° |
| 2026-04-23 03:44 | 50.45020 | -118.58928 | 31900 ft | 384 kts | 152° |
| 2026-04-23 03:44 | 50.42746 | -118.56643 | 31318 ft | 389 kts | 152° |
| 2026-04-23 03:45 | 50.40451 | -118.54343 | 30746 ft | 407 kts | 152° |
| 2026-04-23 03:45 | 50.37981 | -118.51873 | 30152 ft | 434 kts | 152° |
| 2026-04-23 03:45 | 50.35371 | -118.49264 | 29484 ft | 449 kts | 152° |
| 2026-04-23 03:45 | 50.32716 | -118.46597 | 28776 ft | 453 kts | 152° |
| 2026-04-23 03:46 | 50.30079 | -118.43943 | 28096 ft | 457 kts | 152° |
| 2026-04-23 03:46 | 50.27393 | -118.41245 | 27414 ft | 459 kts | 152° |
| 2026-04-23 03:46 | 50.24693 | -118.38534 | 26738 ft | 462 kts | 152° |
| 2026-04-23 03:46 | 50.21980 | -118.35808 | 26117 ft | 464 kts | 152° |
| 2026-04-23 03:47 | 50.19254 | -118.33084 | 25452 ft | 466 kts | 152° |
| 2026-04-23 03:47 | 50.16544 | -118.30382 | 24846 ft | 466 kts | 152° |
| 2026-04-23 03:47 | 50.13809 | -118.27660 | 24236 ft | 463 kts | 152° |
| 2026-04-23 03:47 | 50.11090 | -118.24956 | 23641 ft | 460 kts | 152° |
| 2026-04-23 03:48 | 50.08450 | -118.22335 | 22986 ft | 456 kts | 152° |
| 2026-04-23 03:48 | 50.05770 | -118.19676 | 22286 ft | 452 kts | 152° |
| 2026-04-23 03:48 | 50.03132 | -118.17061 | 21668 ft | 445 kts | 152° |
| 2026-04-23 03:48 | 50.00565 | -118.14519 | 21481 ft | 429 kts | 152° |
| 2026-04-23 03:49 | 49.98044 | -118.12040 | 20678 ft | 429 kts | 152° |
| 2026-04-23 03:49 | 49.95526 | -118.09575 | 19966 ft | 426 kts | 150° |
| 2026-04-23 03:49 | 49.93047 | -118.07051 | 19278 ft | 425 kts | 150° |
| 2026-04-23 03:49 | 49.90594 | -118.04623 | 18590 ft | 422 kts | 152° |
| 2026-04-23 03:50 | 49.88104 | -118.02201 | 17920 ft | 422 kts | 151° |
| 2026-04-23 03:50 | 49.85621 | -117.99771 | 17154 ft | 421 kts | 151° |
| 2026-04-23 03:50 | 49.83136 | -117.97345 | 16403 ft | 420 kts | 150° |
| 2026-04-23 03:50 | 49.80666 | -117.94927 | 15665 ft | 419 kts | 150° |
| 2026-04-23 03:51 | 49.78205 | -117.92521 | 14952 ft | 417 kts | 150° |
| 2026-04-23 03:51 | 49.75736 | -117.90187 | 14250 ft | 413 kts | 150° |
| 2026-04-23 03:51 | 49.73321 | -117.87872 | 13568 ft | 403 kts | 150° |
| 2026-04-23 03:51 | 49.70983 | -117.85649 | 12803 ft | 395 kts | 150° |
| 2026-04-23 03:52 | 49.68708 | -117.83306 | 11982 ft | 389 kts | 148° |
| 2026-04-23 03:52 | 49.66383 | -117.81261 | 11147 ft | 375 kts | 166° |
| 2026-04-23 03:52 | 49.63873 | -117.80882 | 10598 ft | 360 kts | 177° |
| 2026-04-23 03:52 | 49.61569 | -117.79415 | 9825 ft | 370 kts | 147° |
| 2026-04-23 03:53 | 49.59411 | -117.77437 | 9757 ft | 353 kts | 161° |
| 2026-04-23 03:53 | 49.57159 | -117.76015 | 9646 ft | 345 kts | 156° |
| 2026-04-23 03:53 | 49.55097 | -117.74183 | 9663 ft | 339 kts | 144° |
| 2026-04-23 03:53 | 49.53327 | -117.71906 | 9557 ft | 323 kts | 134° |
| 2026-04-23 03:54 | 49.51999 | -117.69311 | 9845 ft | 290 kts | 121° |
| 2026-04-23 03:54 | 49.50962 | -117.66811 | 9732 ft | 278 kts | 120° |
| 2026-04-23 03:54 | 49.49925 | -117.64274 | 9211 ft | 285 kts | 121° |
| 2026-04-23 03:54 | 49.48794 | -117.61763 | 8863 ft | 286 kts | 123° |
| 2026-04-23 03:55 | 49.47579 | -117.59306 | 8346 ft | 279 kts | 125° |
| 2026-04-23 03:55 | 49.46380 | -117.57099 | 8243 ft | 261 kts | 130° |
| 2026-04-23 03:55 | 49.45106 | -117.55188 | 7850 ft | 257 kts | 142° |
| 2026-04-23 03:55 | 49.43554 | -117.53821 | 7169 ft | 261 kts | 164° |
| 2026-04-23 03:56 | 49.41789 | -117.53378 | 6634 ft | 254 kts | 185° |
| 2026-04-23 03:56 | 49.40079 | -117.53771 | 6134 ft | 244 kts | 202° |
| 2026-04-23 03:56 | 49.38533 | -117.54731 | 5732 ft | 233 kts | 210° |
| 2026-04-23 03:56 | 49.37210 | -117.55882 | 5569 ft | 200 kts | 215° |
| 2026-04-23 03:57 | 49.36153 | -117.56928 | 5390 ft | 169 kts | 218° |
| 2026-04-23 03:57 | 49.35289 | -117.57936 | 5043 ft | 146 kts | 236° |
| 2026-04-23 03:57 | 49.34558 | -117.59006 | 4451 ft | 144 kts | 245° |
| 2026-04-23 03:57 | 49.33915 | -117.60134 | 3746 ft | 140 kts | 236° |
| 2026-04-23 03:58 | 49.33208 | -117.61310 | 3418 ft | 163 kts | 233° |
| 2026-04-23 03:58 | 49.32408 | -117.62689 | 3125 ft | 185 kts | 231° |
| 2026-04-23 03:58 | 49.31533 | -117.64242 | 3089 ft | 198 kts | 232° |
| 2026-04-23 03:58 | 49.30545 | -117.65683 | 3187 ft | 200 kts | 219° |
| 2026-04-23 03:59 | 49.29289 | -117.66697 | 3543 ft | 208 kts | 205° |
| 2026-04-23 03:59 | 49.27937 | -117.67530 | 3651 ft | 211 kts | 206° |
| 2026-04-23 03:59 | 49.26622 | -117.68421 | 3771 ft | 203 kts | 201° |
| 2026-04-23 03:59 | 49.25197 | -117.68709 | 3578 ft | 210 kts | 177° |
| 2026-04-23 04:00 | 49.23795 | -117.68241 | 3598 ft | 207 kts | 152° |
| 2026-04-23 04:00 | 49.22856 | -117.66582 | 3676 ft | 218 kts | 110° |
| 2026-04-23 04:00 | 49.22748 | -117.64378 | 3795 ft | 202 kts | 70° |
| 2026-04-23 04:00 | 49.23527 | -117.62788 | 3719 ft | 180 kts | 22° |
| 2026-04-23 04:01 | 49.24638 | -117.62276 | 3427 ft | 165 kts | 3° |
| 2026-04-23 04:01 | 49.25793 | -117.62270 | 3031 ft | 170 kts | 353° |
| 2026-04-23 04:01 | 49.26998 | -117.62475 | 2613 ft | 177 kts | 346° |
| 2026-04-23 04:01 | 49.28226 | -117.62790 | 1985 ft | 182 kts | 354° |
| 2026-04-23 04:02 | 49.29436 | -117.63210 | 1731 ft | 182 kts | 337° |
| 2026-04-23 04:02 | 49.30693 | -117.63695 | 2609 ft | 185 kts | 340° |
| 2026-04-23 04:02 | 49.32002 | -117.64176 | 3273 ft | 203 kts | 341° |
| 2026-04-23 04:02 | 49.33420 | -117.64811 | 3795 ft | 222 kts | 335° |
| 2026-04-23 04:03 | 49.34617 | -117.66198 | 4674 ft | 222 kts | 297° |
| 2026-04-23 04:03 | 49.34736 | -117.68465 | 4990 ft | 217 kts | 240° |
| 2026-04-23 04:03 | 49.33505 | -117.69666 | 5050 ft | 225 kts | 188° |
| 2026-04-23 04:03 | 49.31916 | -117.69652 | 4615 ft | 230 kts | 178° |
| 2026-04-23 04:04 | 49.30351 | -117.69412 | 4201 ft | 223 kts | 175° |
| 2026-04-23 04:04 | 49.28833 | -117.69119 | 4150 ft | 215 kts | 173° |
| 2026-04-23 04:04 | 49.27419 | -117.68809 | 4064 ft | 197 kts | 174° |
| 2026-04-23 04:04 | 49.26103 | -117.68636 | 3810 ft | 186 kts | 180° |
| 2026-04-23 04:05 | 49.24793 | -117.68621 | 3393 ft | 186 kts | 181° |
| 2026-04-23 04:05 | 49.23588 | -117.68113 | 3359 ft | 176 kts | 139° |
| 2026-04-23 04:05 | 49.23144 | -117.66581 | 3175 ft | 150 kts | 83° |
| 2026-04-23 04:05 | 49.23574 | -117.65236 | 2870 ft | 146 kts | 37° |
| 2026-04-23 04:06 | 49.24401 | -117.64370 | 2760 ft | 140 kts | 28° |
| 2026-04-23 04:06 | 49.25175 | -117.63458 | 2610 ft | 139 kts | 32° |
| 2026-04-23 04:06 | 49.25973 | -117.62687 | 2433 ft | 133 kts | 17° |
| 2026-04-23 04:06 | 49.26867 | -117.62529 | 2240 ft | 124 kts | 355° |
| 2026-04-23 04:07 | 49.27687 | -117.62673 | 2037 ft | 117 kts | 347° |
| 2026-04-23 04:07 | 49.28501 | -117.62923 | 1796 ft | 124 kts | 346° |
| 2026-04-23 04:07 | 49.29288 | -117.63164 | 1612 ft | 103 kts | 347° |
| 2026-04-23 04:07 | 49.29834 | -117.63323 | 1619 ft | 53 kts | 349° |
| 2026-04-23 04:08 | 49.30039 | -117.63386 | 1613 ft | 24 kts | 348° |
| 2026-04-23 04:08 | 49.30093 | -117.63538 | 1617 ft | 9 kts | 262° |
| 2026-04-23 04:08 | 49.30040 | -117.63560 | 1619 ft | 9 kts | 172° |
| 2026-04-23 04:08 | 49.29999 | -117.63564 | 1611 ft | 3 kts | 239° |
| 2026-04-23 04:09 | 49.30014 | -117.63593 | 1612 ft | 3 kts | 302° |
| 2026-04-23 04:09 | 49.30018 | -117.63604 | 1611 ft | 0 kts | 304° |